Terminal Aerodrome Forecast
Issued by NWS

Home | Current Version | Previous Version | Text Only | Print | Product List | Glossary On
Versions: 1 2 3 4 5 6 7 8 9 10 11 12 13
000
FTUS45 KPIH 032320
TAFSUN
TAF
KSUN 032320Z 0400/0424 23010KT P6SM SCT080
     FM040400 31011KT P6SM SKC
     FM041700 14008KT P6SM SKC
     FM042100 23010KT P6SM FEW090
      AMD LTD TO CLD VIS AND WIND 0405/0413=

USA.gov is the U.S. government's official web portal to all federal, state and local government web resources and services.